Kissho — JD3124 — position and weather

sailwx.info

Track history (hours):
 
Tides and Currents Weather Stations Pressure Air Temp Water Temp Dewpoint Dewpoint Depression Visibility Wind Speed Wind Dir Waves Ship Positions

Kissho

Last reported at 2018-Apr-21 08:00 UTC. Time now 2018-Apr-23 11:40 UTC.
Position N 34°23' E 130°51'.

Length 30 m.

Type: Tug. MMSI: 431002115.

Date/timePositionNaut miles runAvg speedWind from/ knotsBaromVisibWave heightAir tempDewpointWater temp
2018-Apr-21 08:00N 34°23' E 130°51'1110.0
2018-Apr-21 06:56N 34°12' E 130°50'510.2
2018-Apr-21 06:29N 34°08' E 130°51'510.6
2018-Apr-21 06:00N 34°03' E 130°52'510.0
2018-Apr-21 05:30N 33°58' E 130°53'4 8.9
2018-Apr-21 05:00N 33°54' E 130°49'1 1.8
2018-Apr-21 04:28N 33°54' E 130°48'0 0.0
2018-Apr-21 03:58N 33°54' E 130°48'0 0.0
2018-Apr-21 03:28N 33°54' E 130°48'0 0.0
2018-Apr-21 02:58N 33°54' E 130°48'0 0.0
2018-Apr-21 02:25N 33°54' E 130°48'0 0.0
2018-Apr-21 01:58N 33°54' E 130°48'0 0.0
2018-Apr-21 01:28N 33°54' E 130°48'0 0.1
2018-Apr-21 01:00N 33°54' E 130°48'4 7.4
2018-Apr-21 00:30N 33°56' E 130°52'4 6.8
2018-Apr-20 23:59N 33°56' E 130°56'4 7.7
2018-Apr-20 23:30N 33°58' E 130°59'4 8.9
2018-Apr-20 23:00N 33°57' E 131°04'2 3.5
2018-Apr-20 22:30N 33°56' E 131°06'3 6.1
2018-Apr-20 22:00N 33°54' E 131°08'5 9.8
2018-Apr-20 21:30N 33°52' E 131°13'5 9.9
2018-Apr-20 20:59N 33°51' E 131°20'5 9.6
2018-Apr-20 20:30N 33°50' E 131°25'5 9.5
2018-Apr-20 19:59N 33°49' E 131°31'5 9.6
2018-Apr-20 19:30N 33°48' E 131°36'5 9.5
2018-Apr-20 18:57N 33°47' E 131°43'5 9.6
2018-Apr-20 18:28N 33°47' E 131°48'11 9.6
2018-Apr-20 17:17N 33°46' E 132°02'32 8.4
2018-Apr-20 13:31N 34°00' E 132°36'0 8.5
2018-Apr-20 13:30N 34°00' E 132°36'4 8.6
2018-Apr-20 13:00N 34°03' E 132°39'96 8.8
2018-Apr-20 02:10N 34°28' E 134°31'210.3
2018-Apr-20 01:56N 34°29' E 134°34'410.4
2018-Apr-20 01:30N 34°31' E 134°39'510.4
2018-Apr-20 01:00N 34°33' E 134°45'610.9
2018-Apr-20 00:27N 34°35' E 134°52'510.9
2018-Apr-20 00:00N 34°37' E 134°57'5 9.4
2018-Apr-19 23:30N 34°37' E 135°03'510.1
2018-Apr-19 23:00N 34°37' E 135°09'5 9.9
2018-Apr-19 22:30N 34°38' E 135°15'5 9.9
2018-Apr-19 22:00N 34°39' E 135°20'5 9.4
2018-Apr-19 21:30N 34°39' E 135°26'1 2.7
2018-Apr-19 21:00N 34°39' E 135°28'0 0.0
2018-Apr-19 20:27N 34°39' E 135°28'0 0.0
2018-Apr-19 19:57N 34°39' E 135°28'0 0.0
2018-Apr-19 19:27N 34°39' E 135°28'0 0.0
2018-Apr-19 18:57N 34°39' E 135°28'0 0.0
2018-Apr-19 18:30N 34°39' E 135°28'0 0.0
2018-Apr-19 17:57N 34°39' E 135°28'0 0.0
2018-Apr-19 17:27N 34°39' E 135°28'0 0.0
2018-Apr-19 17:00N 34°39' E 135°28'0 0.0
2018-Apr-19 16:30N 34°39' E 135°28'0 0.0
2018-Apr-19 16:00N 34°39' E 135°28'0 0.0
2018-Apr-19 15:30N 34°39' E 135°28'0 0.0
2018-Apr-19 14:57N 34°39' E 135°28'0 0.0
2018-Apr-19 14:30N 34°39' E 135°28'0 0.0
2018-Apr-19 14:00N 34°39' E 135°28'0 0.0
2018-Apr-19 13:30N 34°39' E 135°28'0 0.0
2018-Apr-19 13:00N 34°39' E 135°28'0 0.0
2018-Apr-19 12:30N 34°39' E 135°28'0 0.0
2018-Apr-19 11:57N 34°39' E 135°28'0 0.0
2018-Apr-19 11:30N 34°39' E 135°28'0 0.0
2018-Apr-19 10:57N 34°39' E 135°28'0 0.0
2018-Apr-19 10:30N 34°39' E 135°28'0 0.0
2018-Apr-19 10:00N 34°39' E 135°28'0 0.0
2018-Apr-19 09:30N 34°39' E 135°28'0 0.0
2018-Apr-19 08:57N 34°39' E 135°28'0 0.0
2018-Apr-19 08:30N 34°39' E 135°28'0 0.0
2018-Apr-19 07:57N 34°39' E 135°28'0 0.0
2018-Apr-19 07:30N 34°39' E 135°28'0 0.0
2018-Apr-19 07:00N 34°39' E 135°28'0 0.0
2018-Apr-19 06:30N 34°39' E 135°28'0 0.0
2018-Apr-19 06:00N 34°39' E 135°28'0 0.0
2018-Apr-19 05:30N 34°39' E 135°28'0 0.0
2018-Apr-19 05:00N 34°39' E 135°28'0 0.0
2018-Apr-19 04:30N 34°39' E 135°28'0 0.0
2018-Apr-19 03:57N 34°39' E 135°28'0 0.0
2018-Apr-19 03:30N 34°39' E 135°28'0 0.0
2018-Apr-19 03:00N 34°39' E 135°28'0 0.0
2018-Apr-19 02:30N 34°39' E 135°28'1 1.4
2018-Apr-19 02:00N 34°39' E 135°27'4 8.9
2018-Apr-19 01:30N 34°40' E 135°22'1 2.8
2018-Apr-19 01:00N 34°41' E 135°20'2 3.4
2018-Apr-19 00:30N 34°40' E 135°22'3 6.4
2018-Apr-19 00:00N 34°40' E 135°26'1 1.8
2018-Apr-18 23:30N 34°40' E 135°27'2 3.1
2018-Apr-18 23:00N 34°39' E 135°27'1 1.3
2018-Apr-18 22:30N 34°39' E 135°28'0 0.0
2018-Apr-18 22:00N 34°39' E 135°28'0 0.0
2018-Apr-18 21:30N 34°39' E 135°28'0 0.0
2018-Apr-18 21:00N 34°39' E 135°28'0 0.0
2018-Apr-18 20:30N 34°39' E 135°28'0 0.0
2018-Apr-18 20:00N 34°39' E 135°28'0 0.0
2018-Apr-18 19:30N 34°39' E 135°28'0 0.0
2018-Apr-18 19:00N 34°39' E 135°28'0 0.0
2018-Apr-18 18:30N 34°39' E 135°28'0 0.0
2018-Apr-18 18:00N 34°39' E 135°28'0 0.0
2018-Apr-18 17:30N 34°39' E 135°28'0 0.0
2018-Apr-18 17:00N 34°39' E 135°28'0 0.0
2018-Apr-18 16:30N 34°39' E 135°28'0 0.0
2018-Apr-18 16:00N 34°39' E 135°28'0 0.0
2018-Apr-18 15:30N 34°39' E 135°28'0 0.0
2018-Apr-18 15:00N 34°39' E 135°28'0 0.0
2018-Apr-18 14:30N 34°39' E 135°28'0 0.0
2018-Apr-18 13:57N 34°39' E 135°28'0 0.0
2018-Apr-18 13:30N 34°39' E 135°28'0 0.0
2018-Apr-18 12:57N 34°39' E 135°28'0 0.0
2018-Apr-18 12:30N 34°39' E 135°28'0 0.0
2018-Apr-18 12:00N 34°39' E 135°28'0 0.0
2018-Apr-18 11:27N 34°39' E 135°28'0 0.0
2018-Apr-18 11:00N 34°39' E 135°28'0 0.0
2018-Apr-18 10:30N 34°39' E 135°28'0 0.0
2018-Apr-18 10:00N 34°39' E 135°28'0 0.0
2018-Apr-18 09:30N 34°39' E 135°28'0 0.0
2018-Apr-18 08:57N 34°39' E 135°28'0 0.0
2018-Apr-18 08:30N 34°39' E 135°28'0 0.0
2018-Apr-18 08:00N 34°39' E 135°28'0 0.0
2018-Apr-18 07:30N 34°39' E 135°28'0 0.0
2018-Apr-18 07:00N 34°39' E 135°28'0 0.0
2018-Apr-18 06:30N 34°39' E 135°28'0 0.0
2018-Apr-18 06:00N 34°39' E 135°28'0 0.0
2018-Apr-18 05:30N 34°39' E 135°28'0 0.0
2018-Apr-18 05:00N 34°39' E 135°28'0 0.0
2018-Apr-18 04:30N 34°39' E 135°28'0 0.0
2018-Apr-18 04:00N 34°39' E 135°28'0 0.0
2018-Apr-18 03:30N 34°39' E 135°28'0 0.0
2018-Apr-18 03:00N 34°39' E 135°28'0 0.0
2018-Apr-18 02:30N 34°39' E 135°28'0 0.0
2018-Apr-18 01:57N 34°39' E 135°28'0 0.0
2018-Apr-18 01:30N 34°39' E 135°28'0 0.0
2018-Apr-18 01:00N 34°39' E 135°28'0 0.0
2018-Apr-18 00:30N 34°39' E 135°28'0 0.0
2018-Apr-18 00:00N 34°39' E 135°28'0 0.0
2018-Apr-17 23:30N 34°39' E 135°28'0 0.0
2018-Apr-17 23:00N 34°39' E 135°28'0 0.0
2018-Apr-17 22:30N 34°39' E 135°28'0 0.0
2018-Apr-17 22:00N 34°39' E 135°28'0 0.0
2018-Apr-17 21:30N 34°39' E 135°28'0 0.0
2018-Apr-17 21:00N 34°39' E 135°28'0 0.0
2018-Apr-17 20:30N 34°39' E 135°28'0 0.0
2018-Apr-17 20:00N 34°39' E 135°28'0 0.0
2018-Apr-17 19:30N 34°39' E 135°28'0 0.0
2018-Apr-17 19:00N 34°39' E 135°28'0 0.0
2018-Apr-17 18:30N 34°39' E 135°28'0 0.0
2018-Apr-17 18:00N 34°39' E 135°28'0 0.0
2018-Apr-17 17:30N 34°39' E 135°28'0 0.0
2018-Apr-17 17:00N 34°39' E 135°28'0 0.0
2018-Apr-17 16:30N 34°39' E 135°28'1 2.8
2018-Apr-17 16:00N 34°39' E 135°26'5 9.2
2018-Apr-17 15:30N 34°37' E 135°21'5 9.4
2018-Apr-17 15:00N 34°34' E 135°17'5 9.7
2018-Apr-17 14:30N 34°30' E 135°13'5 9.6
2018-Apr-17 13:59N 34°27' E 135°08'5 9.9
2018-Apr-17 13:30N 34°23' E 135°05'510.1
2018-Apr-17 13:00N 34°19' E 135°01'510.4
2018-Apr-17 12:30N 34°14' E 134°59'5 9.5
2018-Apr-17 11:59N 34°09' E 134°58'5 9.9
2018-Apr-17 11:30N 34°05' E 134°57'115 2.5
2018-Apr-15 12:47N 33°55' E 132°38'3 7.9
2018-Apr-15 12:22N 33°57' E 132°42'96 8.3
2018-Apr-15 00:44N 34°28' E 134°32'5 9.9
2018-Apr-15 00:14N 34°30' E 134°37'2 9.9
2018-Apr-14 23:59N 34°31' E 134°40'510.4
2018-Apr-14 23:30N 34°33' E 134°46'611.6
2018-Apr-14 22:58N 34°35' E 134°53'611.8
2018-Apr-14 22:30N 34°38' E 134°59'611.6
2018-Apr-14 22:00N 34°36' E 135°06'5 9.3
2018-Apr-14 21:30N 34°36' E 135°11'5 9.3
2018-Apr-14 21:00N 34°37' E 135°17'4 8.8
2018-Apr-14 20:30N 34°39' E 135°21'4 8.8
2018-Apr-14 20:00N 34°39' E 135°27'1 1.8
2018-Apr-14 19:30N 34°39' E 135°28'0 0.0
2018-Apr-14 19:00N 34°39' E 135°28'0 0.0
2018-Apr-14 18:30N 34°39' E 135°28'0 0.0
2018-Apr-14 18:00N 34°39' E 135°28'0 0.0
2018-Apr-14 17:30N 34°39' E 135°28'0 0.0
2018-Apr-14 17:00N 34°39' E 135°28'0 0.0
2018-Apr-14 16:30N 34°39' E 135°28'0 0.0
2018-Apr-14 16:00N 34°39' E 135°28'0 0.0
2018-Apr-14 15:30N 34°39' E 135°28'0 0.0
2018-Apr-14 15:00N 34°39' E 135°28'0 0.0
2018-Apr-14 14:30N 34°39' E 135°28'0 0.0
2018-Apr-14 14:00N 34°39' E 135°28'0 0.0
2018-Apr-14 13:30N 34°39' E 135°28'0 0.0
2018-Apr-14 13:00N 34°39' E 135°28'0 0.0
2018-Apr-14 12:30N 34°39' E 135°28'0 0.0
2018-Apr-14 12:00N 34°39' E 135°28'0 0.0
2018-Apr-14 11:30N 34°39' E 135°28'0 0.0
2018-Apr-14 11:00N 34°39' E 135°28'0 0.0
2018-Apr-14 10:30N 34°39' E 135°28'0 0.0
2018-Apr-14 10:00N 34°39' E 135°28'0 0.0
2018-Apr-14 09:30N 34°39' E 135°28'0 0.0
2018-Apr-14 09:00N 34°39' E 135°28'0 0.0
2018-Apr-14 08:30N 34°39' E 135°28'0 0.0
2018-Apr-14 08:00N 34°39' E 135°28'0 0.0
2018-Apr-14 07:30N 34°39' E 135°28'0 0.0
2018-Apr-14 07:00N 34°39' E 135°28'0 0.0
2018-Apr-14 06:27N 34°39' E 135°28'0 0.0
2018-Apr-14 06:00N 34°39' E 135°28'0 0.0
2018-Apr-14 05:30N 34°39' E 135°28'0 0.0
2018-Apr-14 05:00N 34°39' E 135°28'0 0.0
2018-Apr-14 04:30N 34°39' E 135°28'0 0.0
2018-Apr-14 04:00N 34°39' E 135°28'0 0.0
2018-Apr-14 03:30N 34°39' E 135°28'0 0.0
2018-Apr-14 03:00N 34°39' E 135°28'0 0.0
2018-Apr-14 02:30N 34°39' E 135°28'0 0.0
2018-Apr-14 02:00N 34°39' E 135°28'0 0.0
2018-Apr-14 01:30N 34°39' E 135°28'0 0.0
2018-Apr-14 01:00N 34°39' E 135°28'0 0.0
2018-Apr-14 00:30N 34°39' E 135°28'0 0.0
2018-Apr-14 00:00N 34°39' E 135°28'0 0.0
2018-Apr-13 23:30N 34°39' E 135°28'0 0.0
2018-Apr-13 23:00N 34°39' E 135°28'0 0.0
2018-Apr-13 22:30N 34°39' E 135°28'0 0.0
2018-Apr-13 22:00N 34°39' E 135°28'0 0.0
2018-Apr-13 21:30N 34°39' E 135°28'0 0.0
2018-Apr-13 21:00N 34°39' E 135°28'0 0.0
2018-Apr-13 20:30N 34°39' E 135°28'0 0.0
2018-Apr-13 20:00N 34°39' E 135°28'0 0.0
2018-Apr-13 19:30N 34°39' E 135°28'0 0.0
2018-Apr-13 19:00N 34°39' E 135°28'0 0.0
2018-Apr-13 18:30N 34°39' E 135°28'0 0.0
2018-Apr-13 18:00N 34°39' E 135°28'0 0.0
2018-Apr-13 17:30N 34°39' E 135°28'0 0.0
2018-Apr-13 17:00N 34°39' E 135°28'0 0.0
2018-Apr-13 16:30N 34°39' E 135°28'0 0.0
2018-Apr-13 16:00N 34°39' E 135°28'0 0.0
2018-Apr-13 15:30N 34°39' E 135°28'0 0.0
2018-Apr-13 15:00N 34°39' E 135°28'0 0.0
2018-Apr-13 14:30N 34°39' E 135°28'0 0.0
2018-Apr-13 14:00N 34°39' E 135°28'0 0.0
2018-Apr-13 13:27N 34°39' E 135°28'0 0.0
2018-Apr-13 13:00N 34°39' E 135°28'0 0.0
2018-Apr-13 12:30N 34°39' E 135°28'0 0.0
2018-Apr-13 12:00N 34°39' E 135°28'0 0.0
2018-Apr-13 11:30N 34°39' E 135°28'0 0.0
2018-Apr-13 11:00N 34°39' E 135°28'0 0.0
2018-Apr-13 10:30N 34°39' E 135°28'0 0.0
2018-Apr-13 10:00N 34°39' E 135°28'0 0.0
2018-Apr-13 09:30N 34°39' E 135°28'0 0.0
2018-Apr-13 09:00N 34°39' E 135°28'0 0.0
2018-Apr-13 08:30N 34°39' E 135°28'0 0.0
2018-Apr-13 08:00N 34°39' E 135°28'0 0.0
2018-Apr-13 07:30N 34°39' E 135°28'0 0.0
2018-Apr-13 07:00N 34°39' E 135°28'0 0.0
2018-Apr-13 06:30N 34°39' E 135°28'0 0.0
2018-Apr-13 06:00N 34°39' E 135°28'0 0.0
2018-Apr-13 05:30N 34°39' E 135°28'0 0.0
2018-Apr-13 05:00N 34°39' E 135°28'0 0.0
2018-Apr-13 04:30N 34°39' E 135°28'0 0.0
2018-Apr-13 04:00N 34°39' E 135°28'0 0.0
2018-Apr-13 03:30N 34°39' E 135°28'0 0.0
2018-Apr-13 03:00N 34°39' E 135°28'0 0.0
2018-Apr-13 02:30N 34°39' E 135°28'0 0.0
2018-Apr-13 02:00N 34°39' E 135°28'0 0.1
2018-Apr-13 01:30N 34°39' E 135°28'1 2.3
2018-Apr-13 00:58N 34°40' E 135°27'1 2.9
2018-Apr-13 00:30N 34°39' E 135°26'3 6.2
2018-Apr-13 00:00N 34°40' E 135°22'1 2.6
2018-Apr-12 23:29N 34°41' E 135°21'0 0.0
2018-Apr-12 22:59N 34°41' E 135°21'3 7.1
2018-Apr-12 22:30N 34°39' E 135°24'1 2.8
2018-Apr-12 22:00N 34°40' E 135°26'1 2.6
2018-Apr-12 21:28N 34°39' E 135°28'0 0.0
2018-Apr-12 20:58N 34°39' E 135°28'0 0.0
2018-Apr-12 20:28N 34°39' E 135°28'0 0.0
2018-Apr-12 19:58N 34°39' E 135°28'0 0.0
2018-Apr-12 19:28N 34°39' E 135°28'0 0.0
2018-Apr-12 18:58N 34°39' E 135°28'0 0.0
2018-Apr-12 18:28N 34°39' E 135°28'0 0.0
2018-Apr-12 17:58N 34°39' E 135°28'0 0.0
2018-Apr-12 17:28N 34°39' E 135°28'0 0.0
2018-Apr-12 16:58N 34°39' E 135°28'0 0.0
2018-Apr-12 16:28N 34°39' E 135°28'0 0.0
2018-Apr-12 15:58N 34°39' E 135°28'0 0.0
2018-Apr-12 15:28N 34°39' E 135°28'0 0.0
2018-Apr-12 14:58N 34°39' E 135°28'0 0.0
2018-Apr-12 14:28N 34°39' E 135°28'0 0.0
2018-Apr-12 13:58N 34°39' E 135°28'0 0.0
2018-Apr-12 13:28N 34°39' E 135°28'0 0.0
2018-Apr-12 12:58N 34°39' E 135°28'0 0.0
2018-Apr-12 12:28N 34°39' E 135°28'0 0.0
2018-Apr-12 11:58N 34°39' E 135°28'0 0.0
2018-Apr-12 11:28N 34°39' E 135°28'0 0.0
2018-Apr-12 10:58N 34°39' E 135°28'0 0.0
2018-Apr-12 10:25N 34°39' E 135°28'0 0.0
2018-Apr-12 09:58N 34°39' E 135°28'0 0.0
2018-Apr-12 09:28N 34°39' E 135°28'0 0.0
2018-Apr-12 08:58N 34°39' E 135°28'0 0.0
2018-Apr-12 08:28N 34°39' E 135°28'0 0.0
2018-Apr-12 07:58N 34°39' E 135°28'0 0.0
2018-Apr-12 07:28N 34°39' E 135°28'0 0.0
2018-Apr-12 06:58N 34°39' E 135°28'0 0.0
2018-Apr-12 06:28N 34°39' E 135°28'0 0.0
2018-Apr-12 05:58N 34°39' E 135°28'0 0.0
2018-Apr-12 05:28N 34°39' E 135°28'0 0.0
2018-Apr-12 04:58N 34°39' E 135°28'0 0.0
2018-Apr-12 04:28N 34°39' E 135°28'0 0.0
2018-Apr-12 03:58N 34°39' E 135°28'0 0.0
2018-Apr-12 03:28N 34°39' E 135°28'0 0.0
2018-Apr-12 02:58N 34°39' E 135°28'0 0.0
2018-Apr-12 02:28N 34°39' E 135°28'0 0.0
2018-Apr-12 01:58N 34°39' E 135°28'0 0.0
2018-Apr-12 01:28N 34°39' E 135°28'0 0.0
2018-Apr-12 00:58N 34°39' E 135°28'0 0.0
2018-Apr-12 00:28N 34°39' E 135°28'0 0.0
2018-Apr-11 23:58N 34°39' E 135°28'0 0.0
2018-Apr-11 23:28N 34°39' E 135°28'0 0.0
2018-Apr-11 22:58N 34°39' E 135°28'0 0.0
2018-Apr-11 22:28N 34°39' E 135°28'0 0.0
2018-Apr-11 21:58N 34°39' E 135°28'0 0.0
2018-Apr-11 21:25N 34°39' E 135°28'0 0.0
2018-Apr-11 20:58N 34°39' E 135°28'0 0.0
2018-Apr-11 20:28N 34°39' E 135°28'0 0.0
2018-Apr-11 19:58N 34°39' E 135°28'0 0.0
2018-Apr-11 19:28N 34°39' E 135°28'0 0.0
2018-Apr-11 18:58N 34°39' E 135°28'0 0.0
2018-Apr-11 18:25N 34°39' E 135°28'0 0.0
2018-Apr-11 17:58N 34°39' E 135°28'0 0.0
2018-Apr-11 17:28N 34°39' E 135°28'0 0.0
2018-Apr-11 16:58N 34°39' E 135°28'0 0.0
2018-Apr-11 16:28N 34°39' E 135°28'0 0.0
2018-Apr-11 15:58N 34°39' E 135°28'0 0.0
2018-Apr-11 15:28N 34°39' E 135°28'0 0.0
2018-Apr-11 14:58N 34°39' E 135°28'0 0.0
2018-Apr-11 14:28N 34°39' E 135°28'0 0.0
2018-Apr-11 13:58N 34°39' E 135°28'0 0.0
2018-Apr-11 13:28N 34°39' E 135°28'0 0.0
2018-Apr-11 12:58N 34°39' E 135°28'0 0.0
2018-Apr-11 12:28N 34°39' E 135°28'0 0.0
2018-Apr-11 11:58N 34°39' E 135°28'0 0.0
2018-Apr-11 11:28N 34°39' E 135°28'0 0.0
2018-Apr-11 10:58N 34°39' E 135°28'0 0.0
2018-Apr-11 10:28N 34°39' E 135°28'0 0.0
2018-Apr-11 09:58N 34°39' E 135°28'0 0.0
2018-Apr-11 09:28N 34°39' E 135°28'0 0.0
2018-Apr-11 08:58N 34°39' E 135°28'0 0.0
2018-Apr-11 08:25N 34°39' E 135°28'  
Track history (hours):
 
Tides and Currents Weather Stations Pressure Air Temp Water Temp Dewpoint Dewpoint Depression Visibility Wind Speed Wind Dir Waves Ship Positions

Kissho

Last reported at 2018-Apr-21 08:00 UTC. Time now 2018-Apr-23 11:40 UTC.
Position N 34°23' E 130°51'.

Length 30 m.

Type: Tug. MMSI: 431002115.

Date/timePositionNaut miles runAvg speedWind from/ knotsBaromVisibWave heightAir tempDewpointWater temp
2018-Apr-21 08:00N 34°23' E 130°51'1110.0
2018-Apr-21 06:56N 34°12' E 130°50'510.2
2018-Apr-21 06:29N 34°08' E 130°51'510.6
2018-Apr-21 06:00N 34°03' E 130°52'510.0
2018-Apr-21 05:30N 33°58' E 130°53'4 8.9
2018-Apr-21 05:00N 33°54' E 130°49'1 1.8
2018-Apr-21 04:28N 33°54' E 130°48'0 0.0
2018-Apr-21 03:58N 33°54' E 130°48'0 0.0
2018-Apr-21 03:28N 33°54' E 130°48'0 0.0
2018-Apr-21 02:58N 33°54' E 130°48'0 0.0
2018-Apr-21 02:25N 33°54' E 130°48'0 0.0
2018-Apr-21 01:58N 33°54' E 130°48'0 0.0
2018-Apr-21 01:28N 33°54' E 130°48'0 0.1
2018-Apr-21 01:00N 33°54' E 130°48'4 7.4
2018-Apr-21 00:30N 33°56' E 130°52'4 6.8
2018-Apr-20 23:59N 33°56' E 130°56'4 7.7
2018-Apr-20 23:30N 33°58' E 130°59'4 8.9
2018-Apr-20 23:00N 33°57' E 131°04'2 3.5
2018-Apr-20 22:30N 33°56' E 131°06'3 6.1
2018-Apr-20 22:00N 33°54' E 131°08'5 9.8
2018-Apr-20 21:30N 33°52' E 131°13'5 9.9
2018-Apr-20 20:59N 33°51' E 131°20'5 9.6
2018-Apr-20 20:30N 33°50' E 131°25'5 9.5
2018-Apr-20 19:59N 33°49' E 131°31'5 9.6
2018-Apr-20 19:30N 33°48' E 131°36'5 9.5
2018-Apr-20 18:57N 33°47' E 131°43'5 9.6
2018-Apr-20 18:28N 33°47' E 131°48'11 9.6
2018-Apr-20 17:17N 33°46' E 132°02'32 8.4
2018-Apr-20 13:31N 34°00' E 132°36'0 8.5
2018-Apr-20 13:30N 34°00' E 132°36'4 8.6
2018-Apr-20 13:00N 34°03' E 132°39'96 8.8
2018-Apr-20 02:10N 34°28' E 134°31'210.3
2018-Apr-20 01:56N 34°29' E 134°34'410.4
2018-Apr-20 01:30N 34°31' E 134°39'510.4
2018-Apr-20 01:00N 34°33' E 134°45'610.9
2018-Apr-20 00:27N 34°35' E 134°52'510.9
2018-Apr-20 00:00N 34°37' E 134°57'5 9.4
2018-Apr-19 23:30N 34°37' E 135°03'510.1
2018-Apr-19 23:00N 34°37' E 135°09'5 9.9
2018-Apr-19 22:30N 34°38' E 135°15'5 9.9
2018-Apr-19 22:00N 34°39' E 135°20'5 9.4
2018-Apr-19 21:30N 34°39' E 135°26'1 2.7
2018-Apr-19 21:00N 34°39' E 135°28'0 0.0
2018-Apr-19 20:27N 34°39' E 135°28'0 0.0
2018-Apr-19 19:57N 34°39' E 135°28'0 0.0
2018-Apr-19 19:27N 34°39' E 135°28'0 0.0
2018-Apr-19 18:57N 34°39' E 135°28'0 0.0
2018-Apr-19 18:30N 34°39' E 135°28'0 0.0
2018-Apr-19 17:57N 34°39' E 135°28'0 0.0
2018-Apr-19 17:27N 34°39' E 135°28'0 0.0
2018-Apr-19 17:00N 34°39' E 135°28'0 0.0
2018-Apr-19 16:30N 34°39' E 135°28'0 0.0
2018-Apr-19 16:00N 34°39' E 135°28'0 0.0
2018-Apr-19 15:30N 34°39' E 135°28'0 0.0
2018-Apr-19 14:57N 34°39' E 135°28'0 0.0
2018-Apr-19 14:30N 34°39' E 135°28'0 0.0
2018-Apr-19 14:00N 34°39' E 135°28'0 0.0
2018-Apr-19 13:30N 34°39' E 135°28'0 0.0
2018-Apr-19 13:00N 34°39' E 135°28'0 0.0
2018-Apr-19 12:30N 34°39' E 135°28'0 0.0
2018-Apr-19 11:57N 34°39' E 135°28'0 0.0
2018-Apr-19 11:30N 34°39' E 135°28'0 0.0
2018-Apr-19 10:57N 34°39' E 135°28'0 0.0
2018-Apr-19 10:30N 34°39' E 135°28'0 0.0
2018-Apr-19 10:00N 34°39' E 135°28'0 0.0
2018-Apr-19 09:30N 34°39' E 135°28'0 0.0
2018-Apr-19 08:57N 34°39' E 135°28'0 0.0
2018-Apr-19 08:30N 34°39' E 135°28'0 0.0
2018-Apr-19 07:57N 34°39' E 135°28'0 0.0
2018-Apr-19 07:30N 34°39' E 135°28'0 0.0
2018-Apr-19 07:00N 34°39' E 135°28'0 0.0
2018-Apr-19 06:30N 34°39' E 135°28'0 0.0
2018-Apr-19 06:00N 34°39' E 135°28'0 0.0
2018-Apr-19 05:30N 34°39' E 135°28'0 0.0
2018-Apr-19 05:00N 34°39' E 135°28'0 0.0
2018-Apr-19 04:30N 34°39' E 135°28'0 0.0
2018-Apr-19 03:57N 34°39' E 135°28'0 0.0
2018-Apr-19 03:30N 34°39' E 135°28'0 0.0
2018-Apr-19 03:00N 34°39' E 135°28'0 0.0
2018-Apr-19 02:30N 34°39' E 135°28'1 1.4
2018-Apr-19 02:00N 34°39' E 135°27'4 8.9
2018-Apr-19 01:30N 34°40' E 135°22'1 2.8
2018-Apr-19 01:00N 34°41' E 135°20'2 3.4
2018-Apr-19 00:30N 34°40' E 135°22'3 6.4
2018-Apr-19 00:00N 34°40' E 135°26'1 1.8
2018-Apr-18 23:30N 34°40' E 135°27'2 3.1
2018-Apr-18 23:00N 34°39' E 135°27'1 1.3
2018-Apr-18 22:30N 34°39' E 135°28'0 0.0
2018-Apr-18 22:00N 34°39' E 135°28'0 0.0
2018-Apr-18 21:30N 34°39' E 135°28'0 0.0
2018-Apr-18 21:00N 34°39' E 135°28'0 0.0
2018-Apr-18 20:30N 34°39' E 135°28'0 0.0
2018-Apr-18 20:00N 34°39' E 135°28'0 0.0
2018-Apr-18 19:30N 34°39' E 135°28'0 0.0
2018-Apr-18 19:00N 34°39' E 135°28'0 0.0
2018-Apr-18 18:30N 34°39' E 135°28'0 0.0
2018-Apr-18 18:00N 34°39' E 135°28'0 0.0
2018-Apr-18 17:30N 34°39' E 135°28'0 0.0
2018-Apr-18 17:00N 34°39' E 135°28'0 0.0
2018-Apr-18 16:30N 34°39' E 135°28'0 0.0
2018-Apr-18 16:00N 34°39' E 135°28'0 0.0
2018-Apr-18 15:30N 34°39' E 135°28'0 0.0
2018-Apr-18 15:00N 34°39' E 135°28'0 0.0
2018-Apr-18 14:30N 34°39' E 135°28'0 0.0
2018-Apr-18 13:57N 34°39' E 135°28'0 0.0
2018-Apr-18 13:30N 34°39' E 135°28'0 0.0
2018-Apr-18 12:57N 34°39' E 135°28'0 0.0
2018-Apr-18 12:30N 34°39' E 135°28'0 0.0
2018-Apr-18 12:00N 34°39' E 135°28'0 0.0
2018-Apr-18 11:27N 34°39' E 135°28'0 0.0
2018-Apr-18 11:00N 34°39' E 135°28'0 0.0
2018-Apr-18 10:30N 34°39' E 135°28'0 0.0
2018-Apr-18 10:00N 34°39' E 135°28'0 0.0
2018-Apr-18 09:30N 34°39' E 135°28'0 0.0
2018-Apr-18 08:57N 34°39' E 135°28'0 0.0
2018-Apr-18 08:30N 34°39' E 135°28'0 0.0
2018-Apr-18 08:00N 34°39' E 135°28'0 0.0
2018-Apr-18 07:30N 34°39' E 135°28'0 0.0
2018-Apr-18 07:00N 34°39' E 135°28'0 0.0
2018-Apr-18 06:30N 34°39' E 135°28'0 0.0
2018-Apr-18 06:00N 34°39' E 135°28'0 0.0
2018-Apr-18 05:30N 34°39' E 135°28'0 0.0
2018-Apr-18 05:00N 34°39' E 135°28'0 0.0
2018-Apr-18 04:30N 34°39' E 135°28'0 0.0
2018-Apr-18 04:00N 34°39' E 135°28'0 0.0
2018-Apr-18 03:30N 34°39' E 135°28'0 0.0
2018-Apr-18 03:00N 34°39' E 135°28'0 0.0
2018-Apr-18 02:30N 34°39' E 135°28'0 0.0
2018-Apr-18 01:57N 34°39' E 135°28'0 0.0
2018-Apr-18 01:30N 34°39' E 135°28'0 0.0
2018-Apr-18 01:00N 34°39' E 135°28'0 0.0
2018-Apr-18 00:30N 34°39' E 135°28'0 0.0
2018-Apr-18 00:00N 34°39' E 135°28'0 0.0
2018-Apr-17 23:30N 34°39' E 135°28'0 0.0
2018-Apr-17 23:00N 34°39' E 135°28'0 0.0
2018-Apr-17 22:30N 34°39' E 135°28'0 0.0
2018-Apr-17 22:00N 34°39' E 135°28'0 0.0
2018-Apr-17 21:30N 34°39' E 135°28'0 0.0
2018-Apr-17 21:00N 34°39' E 135°28'0 0.0
2018-Apr-17 20:30N 34°39' E 135°28'0 0.0
2018-Apr-17 20:00N 34°39' E 135°28'0 0.0
2018-Apr-17 19:30N 34°39' E 135°28'0 0.0
2018-Apr-17 19:00N 34°39' E 135°28'0 0.0
2018-Apr-17 18:30N 34°39' E 135°28'0 0.0
2018-Apr-17 18:00N 34°39' E 135°28'0 0.0
2018-Apr-17 17:30N 34°39' E 135°28'0 0.0
2018-Apr-17 17:00N 34°39' E 135°28'0 0.0
2018-Apr-17 16:30N 34°39' E 135°28'1 2.8
2018-Apr-17 16:00N 34°39' E 135°26'5 9.2
2018-Apr-17 15:30N 34°37' E 135°21'5 9.4
2018-Apr-17 15:00N 34°34' E 135°17'5 9.7
2018-Apr-17 14:30N 34°30' E 135°13'5 9.6
2018-Apr-17 13:59N 34°27' E 135°08'5 9.9
2018-Apr-17 13:30N 34°23' E 135°05'510.1
2018-Apr-17 13:00N 34°19' E 135°01'510.4
2018-Apr-17 12:30N 34°14' E 134°59'5 9.5
2018-Apr-17 11:59N 34°09' E 134°58'5 9.9
2018-Apr-17 11:30N 34°05' E 134°57'115 2.5
2018-Apr-15 12:47N 33°55' E 132°38'3 7.9
2018-Apr-15 12:22N 33°57' E 132°42'96 8.3
2018-Apr-15 00:44N 34°28' E 134°32'5 9.9
2018-Apr-15 00:14N 34°30' E 134°37'2 9.9
2018-Apr-14 23:59N 34°31' E 134°40'510.4
2018-Apr-14 23:30N 34°33' E 134°46'611.6
2018-Apr-14 22:58N 34°35' E 134°53'611.8
2018-Apr-14 22:30N 34°38' E 134°59'611.6
2018-Apr-14 22:00N 34°36' E 135°06'5 9.3
2018-Apr-14 21:30N 34°36' E 135°11'5 9.3
2018-Apr-14 21:00N 34°37' E 135°17'4 8.8
2018-Apr-14 20:30N 34°39' E 135°21'4 8.8
2018-Apr-14 20:00N 34°39' E 135°27'1 1.8
2018-Apr-14 19:30N 34°39' E 135°28'0 0.0
2018-Apr-14 19:00N 34°39' E 135°28'0 0.0
2018-Apr-14 18:30N 34°39' E 135°28'0 0.0
2018-Apr-14 18:00N 34°39' E 135°28'0 0.0
2018-Apr-14 17:30N 34°39' E 135°28'0 0.0
2018-Apr-14 17:00N 34°39' E 135°28'0 0.0
2018-Apr-14 16:30N 34°39' E 135°28'0 0.0
2018-Apr-14 16:00N 34°39' E 135°28'0 0.0
2018-Apr-14 15:30N 34°39' E 135°28'0 0.0
2018-Apr-14 15:00N 34°39' E 135°28'0 0.0
2018-Apr-14 14:30N 34°39' E 135°28'0 0.0
2018-Apr-14 14:00N 34°39' E 135°28'0 0.0
2018-Apr-14 13:30N 34°39' E 135°28'0 0.0
2018-Apr-14 13:00N 34°39' E 135°28'0 0.0
2018-Apr-14 12:30N 34°39' E 135°28'0 0.0
2018-Apr-14 12:00N 34°39' E 135°28'0 0.0
2018-Apr-14 11:30N 34°39' E 135°28'0 0.0
2018-Apr-14 11:00N 34°39' E 135°28'0 0.0
2018-Apr-14 10:30N 34°39' E 135°28'0 0.0
2018-Apr-14 10:00N 34°39' E 135°28'0 0.0
2018-Apr-14 09:30N 34°39' E 135°28'0 0.0
2018-Apr-14 09:00N 34°39' E 135°28'0 0.0
2018-Apr-14 08:30N 34°39' E 135°28'0 0.0
2018-Apr-14 08:00N 34°39' E 135°28'0 0.0
2018-Apr-14 07:30N 34°39' E 135°28'0 0.0
2018-Apr-14 07:00N 34°39' E 135°28'0 0.0
2018-Apr-14 06:27N 34°39' E 135°28'0 0.0
2018-Apr-14 06:00N 34°39' E 135°28'0 0.0
2018-Apr-14 05:30N 34°39' E 135°28'0 0.0
2018-Apr-14 05:00N 34°39' E 135°28'0 0.0
2018-Apr-14 04:30N 34°39' E 135°28'0 0.0
2018-Apr-14 04:00N 34°39' E 135°28'0 0.0
2018-Apr-14 03:30N 34°39' E 135°28'0 0.0
2018-Apr-14 03:00N 34°39' E 135°28'0 0.0
2018-Apr-14 02:30N 34°39' E 135°28'0 0.0
2018-Apr-14 02:00N 34°39' E 135°28'0 0.0
2018-Apr-14 01:30N 34°39' E 135°28'0 0.0
2018-Apr-14 01:00N 34°39' E 135°28'0 0.0
2018-Apr-14 00:30N 34°39' E 135°28'0 0.0
2018-Apr-14 00:00N 34°39' E 135°28'0 0.0
2018-Apr-13 23:30N 34°39' E 135°28'0 0.0
2018-Apr-13 23:00N 34°39' E 135°28'0 0.0
2018-Apr-13 22:30N 34°39' E 135°28'0 0.0
2018-Apr-13 22:00N 34°39' E 135°28'0 0.0
2018-Apr-13 21:30N 34°39' E 135°28'0 0.0
2018-Apr-13 21:00N 34°39' E 135°28'0 0.0
2018-Apr-13 20:30N 34°39' E 135°28'0 0.0
2018-Apr-13 20:00N 34°39' E 135°28'0 0.0
2018-Apr-13 19:30N 34°39' E 135°28'0 0.0
2018-Apr-13 19:00N 34°39' E 135°28'0 0.0
2018-Apr-13 18:30N 34°39' E 135°28'0 0.0
2018-Apr-13 18:00N 34°39' E 135°28'0 0.0
2018-Apr-13 17:30N 34°39' E 135°28'0 0.0
2018-Apr-13 17:00N 34°39' E 135°28'0 0.0
2018-Apr-13 16:30N 34°39' E 135°28'0 0.0
2018-Apr-13 16:00N 34°39' E 135°28'0 0.0
2018-Apr-13 15:30N 34°39' E 135°28'0 0.0
2018-Apr-13 15:00N 34°39' E 135°28'0 0.0
2018-Apr-13 14:30N 34°39' E 135°28'0 0.0
2018-Apr-13 14:00N 34°39' E 135°28'0 0.0
2018-Apr-13 13:27N 34°39' E 135°28'0 0.0
2018-Apr-13 13:00N 34°39' E 135°28'0 0.0
2018-Apr-13 12:30N 34°39' E 135°28'0 0.0
2018-Apr-13 12:00N 34°39' E 135°28'0 0.0
2018-Apr-13 11:30N 34°39' E 135°28'0 0.0
2018-Apr-13 11:00N 34°39' E 135°28'0 0.0
2018-Apr-13 10:30N 34°39' E 135°28'0 0.0
2018-Apr-13 10:00N 34°39' E 135°28'0 0.0
2018-Apr-13 09:30N 34°39' E 135°28'0 0.0
2018-Apr-13 09:00N 34°39' E 135°28'0 0.0
2018-Apr-13 08:30N 34°39' E 135°28'0 0.0
2018-Apr-13 08:00N 34°39' E 135°28'0 0.0
2018-Apr-13 07:30N 34°39' E 135°28'0 0.0
2018-Apr-13 07:00N 34°39' E 135°28'0 0.0
2018-Apr-13 06:30N 34°39' E 135°28'0 0.0
2018-Apr-13 06:00N 34°39' E 135°28'0 0.0
2018-Apr-13 05:30N 34°39' E 135°28'0 0.0
2018-Apr-13 05:00N 34°39' E 135°28'0 0.0
2018-Apr-13 04:30N 34°39' E 135°28'0 0.0
2018-Apr-13 04:00N 34°39' E 135°28'0 0.0
2018-Apr-13 03:30N 34°39' E 135°28'0 0.0
2018-Apr-13 03:00N 34°39' E 135°28'0 0.0
2018-Apr-13 02:30N 34°39' E 135°28'0 0.0
2018-Apr-13 02:00N 34°39' E 135°28'0 0.1
2018-Apr-13 01:30N 34°39' E 135°28'1 2.3
2018-Apr-13 00:58N 34°40' E 135°27'1 2.9
2018-Apr-13 00:30N 34°39' E 135°26'3 6.2
2018-Apr-13 00:00N 34°40' E 135°22'1 2.6
2018-Apr-12 23:29N 34°41' E 135°21'0 0.0
2018-Apr-12 22:59N 34°41' E 135°21'3 7.1
2018-Apr-12 22:30N 34°39' E 135°24'1 2.8
2018-Apr-12 22:00N 34°40' E 135°26'1 2.6
2018-Apr-12 21:28N 34°39' E 135°28'0 0.0
2018-Apr-12 20:58N 34°39' E 135°28'0 0.0
2018-Apr-12 20:28N 34°39' E 135°28'0 0.0
2018-Apr-12 19:58N 34°39' E 135°28'0 0.0
2018-Apr-12 19:28N 34°39' E 135°28'0 0.0
2018-Apr-12 18:58N 34°39' E 135°28'0 0.0
2018-Apr-12 18:28N 34°39' E 135°28'0 0.0
2018-Apr-12 17:58N 34°39' E 135°28'0 0.0
2018-Apr-12 17:28N 34°39' E 135°28'0 0.0
2018-Apr-12 16:58N 34°39' E 135°28'0 0.0
2018-Apr-12 16:28N 34°39' E 135°28'0 0.0
2018-Apr-12 15:58N 34°39' E 135°28'0 0.0
2018-Apr-12 15:28N 34°39' E 135°28'0 0.0
2018-Apr-12 14:58N 34°39' E 135°28'0 0.0
2018-Apr-12 14:28N 34°39' E 135°28'0 0.0
2018-Apr-12 13:58N 34°39' E 135°28'0 0.0
2018-Apr-12 13:28N 34°39' E 135°28'0 0.0
2018-Apr-12 12:58N 34°39' E 135°28'0 0.0
2018-Apr-12 12:28N 34°39' E 135°28'0 0.0
2018-Apr-12 11:58N 34°39' E 135°28'0 0.0
2018-Apr-12 11:28N 34°39' E 135°28'0 0.0
2018-Apr-12 10:58N 34°39' E 135°28'0 0.0
2018-Apr-12 10:25N 34°39' E 135°28'0 0.0
2018-Apr-12 09:58N 34°39' E 135°28'0 0.0
2018-Apr-12 09:28N 34°39' E 135°28'0 0.0
2018-Apr-12 08:58N 34°39' E 135°28'0 0.0
2018-Apr-12 08:28N 34°39' E 135°28'0 0.0
2018-Apr-12 07:58N 34°39' E 135°28'0 0.0
2018-Apr-12 07:28N 34°39' E 135°28'0 0.0
2018-Apr-12 06:58N 34°39' E 135°28'0 0.0
2018-Apr-12 06:28N 34°39' E 135°28'0 0.0
2018-Apr-12 05:58N 34°39' E 135°28'0 0.0
2018-Apr-12 05:28N 34°39' E 135°28'0 0.0
2018-Apr-12 04:58N 34°39' E 135°28'0 0.0
2018-Apr-12 04:28N 34°39' E 135°28'0 0.0
2018-Apr-12 03:58N 34°39' E 135°28'0 0.0
2018-Apr-12 03:28N 34°39' E 135°28'0 0.0
2018-Apr-12 02:58N 34°39' E 135°28'0 0.0
2018-Apr-12 02:28N 34°39' E 135°28'0 0.0
2018-Apr-12 01:58N 34°39' E 135°28'0 0.0
2018-Apr-12 01:28N 34°39' E 135°28'0 0.0
2018-Apr-12 00:58N 34°39' E 135°28'0 0.0
2018-Apr-12 00:28N 34°39' E 135°28'0 0.0
2018-Apr-11 23:58N 34°39' E 135°28'0 0.0
2018-Apr-11 23:28N 34°39' E 135°28'0 0.0
2018-Apr-11 22:58N 34°39' E 135°28'0 0.0
2018-Apr-11 22:28N 34°39' E 135°28'0 0.0
2018-Apr-11 21:58N 34°39' E 135°28'0 0.0
2018-Apr-11 21:25N 34°39' E 135°28'0 0.0
2018-Apr-11 20:58N 34°39' E 135°28'0 0.0
2018-Apr-11 20:28N 34°39' E 135°28'0 0.0
2018-Apr-11 19:58N 34°39' E 135°28'0 0.0
2018-Apr-11 19:28N 34°39' E 135°28'0 0.0
2018-Apr-11 18:58N 34°39' E 135°28'0 0.0
2018-Apr-11 18:25N 34°39' E 135°28'0 0.0
2018-Apr-11 17:58N 34°39' E 135°28'0 0.0
2018-Apr-11 17:28N 34°39' E 135°28'0 0.0
2018-Apr-11 16:58N 34°39' E 135°28'0 0.0
2018-Apr-11 16:28N 34°39' E 135°28'0 0.0
2018-Apr-11 15:58N 34°39' E 135°28'0 0.0
2018-Apr-11 15:28N 34°39' E 135°28'0 0.0
2018-Apr-11 14:58N 34°39' E 135°28'0 0.0
2018-Apr-11 14:28N 34°39' E 135°28'0 0.0
2018-Apr-11 13:58N 34°39' E 135°28'0 0.0
2018-Apr-11 13:28N 34°39' E 135°28'0 0.0
2018-Apr-11 12:58N 34°39' E 135°28'0 0.0
2018-Apr-11 12:28N 34°39' E 135°28'0 0.0
2018-Apr-11 11:58N 34°39' E 135°28'0 0.0
2018-Apr-11 11:28N 34°39' E 135°28'0 0.0
2018-Apr-11 10:58N 34°39' E 135°28'0 0.0
2018-Apr-11 10:28N 34°39' E 135°28'0 0.0
2018-Apr-11 09:58N 34°39' E 135°28'0 0.0
2018-Apr-11 09:28N 34°39' E 135°28'0 0.0
2018-Apr-11 08:58N 34°39' E 135°28'0 0.0
2018-Apr-11 08:25N 34°39' E 135°28'  

Dump ship's entire track history